Time;durP1;ratioP1;P1;durP2;ratioP2;P2;SDS_P1;SDS_P2;PMS_P1;PMS_P2;Temp;Humidity;BMP_temperature;BMP_pressure;BME280_temperature;BME280_humidity;BME280_pressure;Samples;Min_cycle;Max_cycle;Signal;HPM_P1;HPM_P2
2022/01/26 00:06:53;;;;;;;0.30;0.10;;;-0.60;99.90;;;;;;5103401;28;20218;-88
2022/01/26 00:09:26;;;;;;;1.80;0.47;;;-0.60;99.90;;;;;;5098237;28;20197;-88
2022/01/26 00:11:56;;;;;;;0.30;0.10;;;-0.60;99.90;;;;;;5088302;28;20232;-88
2022/01/26 00:14:23;;;;;;;0.30;0.10;;;-0.60;99.90;;;;;;5105803;28;20189;-88
2022/01/26 00:16:50;;;;;;;0.30;0.10;;;-0.60;99.90;;;;;;5113700;28;20201;-88
2022/01/26 00:19:22;;;;;;;0.30;0.10;;;-0.50;99.90;;;;;;5106902;28;20198;-87
2022/01/26 00:21:52;;;;;;;0.30;0.10;;;-0.60;99.90;;;;;;5106483;28;20218;-90
2022/01/26 00:27:08;;;;;;;0.30;0.10;;;-0.50;99.90;;;;;;5080615;28;20194;-88
2022/01/26 00:29:38;;;;;;;0.30;0.10;;;-0.50;99.90;;;;;;5077243;28;20220;-88
2022/01/26 00:40:30;;;;;;;0.30;0.10;;;-0.50;99.90;;;;;;5087324;28;20201;-88
2022/01/26 00:43:05;;;;;;;0.30;0.10;;;-0.50;99.90;;;;;;5086507;28;20193;-89
2022/01/26 00:45:36;;;;;;;0.30;0.10;;;-0.50;99.90;;;;;;5085386;28;20192;-89
2022/01/26 00:48:07;;;;;;;0.30;0.10;;;-0.50;99.90;;;;;;5088972;28;20189;-90
2022/01/26 00:50:35;;;;;;;0.30;0.20;;;-0.50;99.90;;;;;;5089673;28;20266;-88
2022/01/26 00:53:05;;;;;;;0.30;0.10;;;-0.50;99.90;;;;;;5086907;28;20198;-87
2022/01/26 00:55:32;;;;;;;1.67;0.47;;;-0.50;99.90;;;;;;5087617;28;20242;-87
2022/01/26 00:58:00;;;;;;;0.30;0.10;;;-0.50;99.90;;;;;;5089371;28;20274;-87
2022/01/26 01:00:29;;;;;;;0.30;0.10;;;-0.50;99.90;;;;;;5091613;28;20201;-88
2022/01/26 01:02:56;;;;;;;0.30;0.10;;;-0.50;99.90;;;;;;5091666;28;20600;-87
2022/01/26 01:05:28;;;;;;;0.30;0.20;;;-0.50;99.90;;;;;;5092556;28;20201;-87
2022/01/26 01:08:01;;;;;;;0.30;0.10;;;-0.50;99.90;;;;;;5092308;28;20202;-88
2022/01/26 01:10:28;;;;;;;0.30;0.10;;;-0.50;99.90;;;;;;5089553;28;20223;-88
2022/01/26 01:12:57;;;;;;;0.30;0.10;;;-0.50;99.90;;;;;;5093110;28;20193;-89
2022/01/26 01:15:27;;;;;;;0.30;0.10;;;-0.50;99.90;;;;;;5093716;28;20206;-88
2022/01/26 01:18:04;;;;;;;0.30;0.10;;;-0.50;99.90;;;;;;5093728;28;20247;-89
2022/01/26 01:20:48;;;;;;;0.30;0.10;;;-0.50;99.90;;;;;;5093184;28;20207;-88
2022/01/26 01:23:39;;;;;;;0.30;0.10;;;-0.50;99.90;;;;;;5094413;28;20246;-87
2022/01/26 01:26:37;;;;;;;0.30;0.10;;;-0.50;99.90;;;;;;5091404;28;20200;-88
2022/01/26 01:29:14;;;;;;;0.30;0.30;;;-0.50;99.90;;;;;;5092133;28;20330;-88
2022/01/26 01:31:47;;;;;;;0.30;0.10;;;-0.50;99.90;;;;;;5091810;28;20218;-87
2022/01/26 01:34:16;;;;;;;0.30;0.10;;;-0.50;99.90;;;;;;5093067;28;20279;-87
2022/01/26 01:36:46;;;;;;;0.30;0.20;;;-0.50;99.90;;;;;;5093390;28;20242;-88
2022/01/26 01:39:13;;;;;;;0.30;0.10;;;-0.50;99.90;;;;;;5093767;28;20223;-88
2022/01/26 01:41:42;;;;;;;0.40;0.35;;;-0.50;99.90;;;;;;5093428;28;20263;-88
2022/01/26 01:44:09;;;;;;;0.30;0.10;;;-0.50;99.90;;;;;;5092610;28;20246;-88
2022/01/26 01:46:38;;;;;;;2.25;0.60;;;-0.40;99.90;;;;;;5091482;28;20191;-88
2022/01/26 01:49:08;;;;;;;0.30;0.10;;;-0.50;99.90;;;;;;5091199;28;20556;-87
2022/01/26 01:51:38;;;;;;;0.30;0.10;;;-0.40;99.90;;;;;;5112865;28;20232;-88
2022/01/26 01:54:10;;;;;;;0.30;0.20;;;-0.40;99.90;;;;;;5116899;28;20284;-87
2022/01/26 01:56:39;;;;;;;0.35;0.15;;;-0.50;99.90;;;;;;5110378;28;20194;-88
2022/01/26 01:59:06;;;;;;;0.30;0.10;;;-0.40;99.90;;;;;;5104909;28;20697;-88
2022/01/26 02:01:33;;;;;;;0.30;0.10;;;-0.40;99.90;;;;;;5094068;28;20257;-91
2022/01/26 02:04:00;;;;;;;0.30;0.10;;;-0.40;99.90;;;;;;5088660;28;20199;-90
2022/01/26 02:06:29;;;;;;;0.30;0.10;;;-0.40;99.90;;;;;;5086449;28;20204;-89
2022/01/26 02:08:56;;;;;;;0.30;0.10;;;-0.40;99.90;;;;;;5087353;28;20248;-90
2022/01/26 02:11:23;;;;;;;0.30;0.10;;;-0.40;99.90;;;;;;5092686;28;20221;-88
2022/01/26 02:13:58;;;;;;;0.30;0.10;;;-0.50;99.90;;;;;;5090762;28;20203;-88
2022/01/26 02:16:30;;;;;;;0.30;0.10;;;-0.50;99.90;;;;;;5092272;28;20193;-88
2022/01/26 02:55:25;;;;;;;0.30;0.10;;;-0.50;99.90;;;;;;5087786;28;20250;-88
2022/01/26 03:01:20;;;;;;;0.30;0.10;;;-0.50;99.90;;;;;;5087254;27;20525;-87
2022/01/26 03:03:55;;;;;;;0.30;0.10;;;-0.50;99.90;;;;;;5084253;28;20199;-87
2022/01/26 03:06:29;;;;;;;0.30;0.20;;;-0.50;99.90;;;;;;5082769;28;20207;-86
2022/01/26 03:09:02;;;;;;;2.05;0.73;;;-0.50;99.90;;;;;;5087845;28;20253;-87
2022/01/26 03:11:32;;;;;;;0.30;0.10;;;-0.50;99.90;;;;;;5075710;28;20197;-88
2022/01/26 03:14:07;;;;;;;0.30;0.10;;;-0.50;99.90;;;;;;5085150;28;20189;-87
2022/01/26 03:16:40;;;;;;;0.30;0.10;;;-0.60;99.90;;;;;;5084853;28;20576;-87
2022/01/26 03:19:18;;;;;;;0.30;0.10;;;-0.50;99.90;;;;;;5087107;28;20320;-87
2022/01/26 03:21:54;;;;;;;0.73;0.73;;;-0.50;99.90;;;;;;5087251;28;20539;-88
2022/01/26 03:30:08;;;;;;;0.30;0.10;;;-0.50;99.90;;;;;;5104872;28;20185;-87
2022/01/26 03:32:59;;;;;;;0.30;0.10;;;-0.60;99.90;;;;;;5100889;28;20194;-87
2022/01/26 03:35:40;;;;;;;0.30;0.10;;;-0.50;99.90;;;;;;5091314;28;20625;-87
2022/01/26 03:38:09;;;;;;;0.30;0.10;;;-0.50;99.90;;;;;;5077429;28;20204;-87
2022/01/26 03:40:38;;;;;;;0.30;0.10;;;-0.50;99.90;;;;;;5067012;28;20258;-87
2022/01/26 03:43:06;;;;;;;0.30;0.10;;;-0.50;99.90;;;;;;5067029;28;20195;-87
2022/01/26 03:45:33;;;;;;;0.30;0.20;;;-0.50;99.90;;;;;;5079549;28;20280;-87
2022/01/26 03:48:01;;;;;;;0.30;0.20;;;-0.40;99.90;;;;;;5078822;28;20248;-87
2022/01/26 03:50:28;;;;;;;0.30;0.20;;;-0.50;99.90;;;;;;5078985;28;20196;-88
2022/01/26 03:52:55;;;;;;;0.30;0.10;;;-0.50;99.90;;;;;;5081734;28;20194;-87
2022/01/26 03:55:23;;;;;;;0.30;0.10;;;-0.60;99.90;;;;;;5086239;28;20669;-88
2022/01/26 03:57:50;;;;;;;0.30;0.10;;;-0.60;99.90;;;;;;5084283;28;20216;-88
2022/01/26 04:00:17;;;;;;;0.30;0.10;;;-0.60;99.90;;;;;;5079693;28;20246;-87
2022/01/26 04:02:44;;;;;;;0.30;0.20;;;-0.70;99.90;;;;;;5084307;28;20674;-86
2022/01/26 04:05:13;;;;;;;0.30;0.10;;;-0.70;99.90;;;;;;5082743;28;20198;-87
2022/01/26 04:07:42;;;;;;;0.30;0.20;;;-0.70;99.90;;;;;;5079068;28;20208;-87
2022/01/26 04:10:18;;;;;;;2.03;0.85;;;-0.60;99.90;;;;;;5080839;28;20301;-88
2022/01/26 04:12:45;;;;;;;0.30;0.10;;;-0.60;99.90;;;;;;5072357;28;20225;-88
2022/01/26 04:15:21;;;;;;;0.30;0.20;;;-0.60;99.90;;;;;;5069334;28;20289;-86
2022/01/26 04:17:48;;;;;;;0.30;0.10;;;-0.60;99.90;;;;;;5067073;28;20257;-87
2022/01/26 04:20:17;;;;;;;0.30;0.10;;;-0.60;99.90;;;;;;5068936;28;20572;-87
2022/01/26 04:22:54;;;;;;;0.30;0.10;;;-0.60;99.90;;;;;;5072426;28;20198;-87
2022/01/26 04:25:24;;;;;;;0.30;0.10;;;-0.60;99.90;;;;;;5065897;28;20201;-88
2022/01/26 04:27:54;;;;;;;0.30;0.10;;;-0.50;99.90;;;;;;5072185;28;20238;-87
2022/01/26 04:30:21;;;;;;;0.30;0.10;;;-0.60;99.90;;;;;;5072058;28;20201;-86
2022/01/26 04:32:48;;;;;;;0.30;0.10;;;-0.60;99.90;;;;;;5063088;28;20250;-87
2022/01/26 04:35:16;;;;;;;0.30;0.10;;;-0.60;99.90;;;;;;5071640;28;20252;-87
2022/01/26 04:38:07;;;;;;;0.30;0.17;;;-0.50;99.90;;;;;;5066304;28;20631;-87
2022/01/26 04:40:39;;;;;;;0.30;0.10;;;-0.50;99.90;;;;;;5068472;28;20221;-87
2022/01/26 04:43:14;;;;;;;0.30;0.10;;;-0.50;99.90;;;;;;5069460;28;20224;-86
2022/01/26 04:45:41;;;;;;;0.30;0.10;;;-0.50;99.90;;;;;;5070008;28;20283;-89
2022/01/26 04:48:08;;;;;;;0.30;0.20;;;-0.50;99.90;;;;;;5063233;28;20265;-90
2022/01/26 04:50:36;;;;;;;0.30;0.10;;;-0.50;99.90;;;;;;5070959;28;20220;-88
2022/01/26 04:53:03;;;;;;;0.30;0.10;;;-0.50;99.90;;;;;;5067299;28;20641;-87
2022/01/26 04:55:30;;;;;;;0.30;0.10;;;-0.50;99.90;;;;;;5061997;28;20681;-88
2022/01/26 04:57:57;;;;;;;0.30;0.10;;;-0.50;99.90;;;;;;5069945;28;20654;-88
2022/01/26 05:00:24;;;;;;;0.30;0.10;;;-0.50;99.90;;;;;;5068256;28;20306;-87
2022/01/26 05:02:51;;;;;;;0.30;0.10;;;-0.50;99.90;;;;;;5072372;28;20243;-87
2022/01/26 05:05:18;;;;;;;0.30;0.10;;;-0.50;99.90;;;;;;5087557;28;20199;-86
2022/01/26 05:07:47;;;;;;;0.30;0.10;;;-0.50;99.90;;;;;;5088561;28;20233;-87
2022/01/26 05:10:14;;;;;;;0.30;0.10;;;-0.40;99.90;;;;;;5078555;28;20203;-87
2022/01/26 05:12:41;;;;;;;0.30;0.10;;;-0.40;99.90;;;;;;5064916;28;20198;-88
2022/01/26 05:15:09;;;;;;;0.30;0.15;;;-0.50;99.90;;;;;;5058096;28;20594;-87
2022/01/26 05:17:38;;;;;;;0.30;0.10;;;-0.50;99.90;;;;;;5054182;28;20263;-87
2022/01/26 05:20:08;;;;;;;0.30;0.10;;;-0.50;99.90;;;;;;5056470;28;20309;-86
2022/01/26 05:22:35;;;;;;;0.30;0.10;;;-0.50;99.90;;;;;;5060223;28;20195;-87
2022/01/26 05:25:04;;;;;;;0.30;0.10;;;-0.40;99.90;;;;;;5060625;28;20633;-88
2022/01/26 05:27:31;;;;;;;0.30;0.20;;;-0.50;99.90;;;;;;5068576;28;20206;-86
2022/01/26 05:29:58;;;;;;;0.30;0.10;;;-0.40;99.90;;;;;;5060602;28;20648;-88
2022/01/26 05:32:25;;;;;;;0.30;0.10;;;-0.50;99.90;;;;;;5063255;28;20229;-86
2022/01/26 05:34:53;;;;;;;0.30;0.10;;;-0.50;99.90;;;;;;5048826;28;20624;-89
2022/01/26 05:37:20;;;;;;;0.30;0.10;;;-0.50;99.90;;;;;;5061114;28;20661;-88
2022/01/26 05:39:47;;;;;;;0.30;0.10;;;-0.60;99.90;;;;;;5053627;28;20754;-88
2022/01/26 05:42:17;;;;;;;0.30;0.10;;;-0.60;99.90;;;;;;5058708;28;20273;-87
2022/01/26 05:44:45;;;;;;;11.13;1.58;;;-0.50;99.90;;;;;;5059689;28;20196;-87
2022/01/26 05:47:16;;;;;;;0.30;0.10;;;-0.50;99.90;;;;;;5055136;28;20202;-88
2022/01/26 05:49:44;;;;;;;0.30;0.15;;;-0.50;99.90;;;;;;5063494;28;20261;-86
2022/01/26 05:52:11;;;;;;;0.30;0.10;;;-0.50;99.90;;;;;;5062443;28;20244;-86
2022/01/26 05:54:38;;;;;;;0.30;0.10;;;-0.60;99.90;;;;;;5069442;28;20610;-86
2022/01/26 05:57:05;;;;;;;0.30;0.10;;;-0.60;99.90;;;;;;5055845;28;20230;-87
2022/01/26 05:59:34;;;;;;;0.30;0.10;;;-0.50;99.90;;;;;;5062484;28;20228;-87
2022/01/26 06:02:01;;;;;;;0.30;0.10;;;-0.50;99.90;;;;;;5064792;28;20601;-86
2022/01/26 06:04:28;;;;;;;0.30;0.10;;;-0.50;99.90;;;;;;5070806;28;20251;-87
2022/01/26 06:06:57;;;;;;;0.30;0.10;;;-0.50;99.90;;;;;;5063091;28;20201;-87
2022/01/26 06:09:24;;;;;;;0.30;0.10;;;-0.50;99.90;;;;;;5031614;28;20298;-86
2022/01/26 06:11:51;;;;;;;0.30;0.10;;;-0.50;99.90;;;;;;5063566;28;20222;-87
2022/01/26 06:14:18;;;;;;;0.30;0.10;;;-0.50;99.90;;;;;;5067525;28;20219;-88
2022/01/26 06:16:46;;;;;;;1.13;1.10;;;-0.50;99.90;;;;;;5046327;28;20281;-87
2022/01/26 06:19:13;;;;;;;1.80;0.90;;;-0.50;99.90;;;;;;5048248;28;20677;-87
2022/01/26 06:21:40;;;;;;;0.30;0.10;;;-0.50;99.90;;;;;;5065046;28;20256;-87
2022/01/26 06:24:07;;;;;;;0.30;0.10;;;-0.50;99.90;;;;;;5050046;28;20242;-86
2022/01/26 06:26:34;;;;;;;0.30;0.10;;;-0.50;99.90;;;;;;5034681;28;20284;-88
2022/01/26 06:29:01;;;;;;;0.30;0.10;;;-0.60;99.90;;;;;;5030208;28;20199;-87
2022/01/26 06:31:28;;;;;;;0.30;0.10;;;-0.60;99.90;;;;;;5030784;28;20226;-87
2022/01/26 06:33:58;;;;;;;0.30;0.10;;;-0.60;99.90;;;;;;5032853;28;20656;-87
2022/01/26 06:36:24;;;;;;;0.30;0.10;;;-0.60;99.90;;;;;;5067785;28;20210;-87
2022/01/26 06:38:52;;;;;;;0.30;0.10;;;-0.60;99.90;;;;;;5082350;28;20239;-87
2022/01/26 06:41:23;;;;;;;0.30;0.30;;;-0.60;99.90;;;;;;5080121;28;20240;-88
2022/01/26 06:43:57;;;;;;;0.30;0.20;;;-0.60;99.90;;;;;;5065336;28;20219;-88
2022/01/26 06:46:30;;;;;;;0.30;0.10;;;-0.60;99.90;;;;;;5074300;28;20199;-87
2022/01/26 06:49:28;;;;;;;0.30;0.10;;;-0.60;99.90;;;;;;5052143;28;20198;-87
2022/01/26 06:51:52;;;;;;;0.30;0.10;;;-0.60;99.90;;;;;;5070248;28;20694;-87
2022/01/26 06:54:19;;;;;;;0.30;0.10;;;-0.70;99.90;;;;;;5070508;28;20199;-88
2022/01/26 06:56:46;;;;;;;0.30;0.10;;;-0.70;99.90;;;;;;5058931;28;20590;-87
2022/01/26 06:59:13;;;;;;;0.30;0.10;;;-0.60;99.90;;;;;;5050725;28;20300;-87
2022/01/26 07:01:41;;;;;;;0.40;0.32;;;-0.60;99.90;;;;;;5050112;28;20312;-87
2022/01/26 07:04:09;;;;;;;0.30;0.20;;;-0.50;99.90;;;;;;5049695;28;20199;-88
2022/01/26 07:06:36;;;;;;;0.30;0.10;;;-0.60;99.90;;;;;;5050435;28;20239;-88
2022/01/26 07:09:04;;;;;;;0.30;0.10;;;-0.60;99.90;;;;;;5049196;28;20649;-87
2022/01/26 07:11:31;;;;;;;0.30;0.10;;;-0.60;99.90;;;;;;5049532;28;20210;-87
2022/01/26 07:14:00;;;;;;;0.30;0.20;;;-0.60;99.90;;;;;;5054108;28;20210;-87
2022/01/26 07:22:09;;;;;;;0.30;0.10;;;-0.50;99.90;;;;;;5044525;28;20861;-86
2022/01/26 07:24:36;;;;;;;0.30;0.10;;;-0.40;99.90;;;;;;5051482;28;20540;-88
2022/01/26 07:27:04;;;;;;;0.30;0.10;;;-0.40;99.90;;;;;;5052175;28;20207;-86
2022/01/26 07:29:32;;;;;;;0.30;0.10;;;-0.50;99.90;;;;;;5056364;28;20197;-83
2022/01/26 07:31:59;;;;;;;0.30;0.10;;;-0.50;99.90;;;;;;5065002;28;20553;-84
2022/01/26 07:34:27;;;;;;;0.30;0.10;;;-0.50;99.90;;;;;;5070064;28;20280;-83
2022/01/26 07:36:59;;;;;;;0.30;0.10;;;-0.50;99.90;;;;;;5043258;28;20253;-83
2022/01/26 07:39:41;;;;;;;0.30;0.10;;;-0.50;99.90;;;;;;5029884;28;20200;-84
2022/01/26 07:42:09;;;;;;;0.30;0.20;;;-0.50;99.90;;;;;;5033077;28;20278;-84
2022/01/26 07:44:36;;;;;;;0.30;0.20;;;-0.40;99.90;;;;;;5049434;28;20287;-84
2022/01/26 07:47:04;;;;;;;0.30;0.20;;;-0.40;99.90;;;;;;5051767;28;20255;-84
2022/01/26 07:49:32;;;;;;;0.30;0.10;;;-0.40;99.90;;;;;;5053311;28;20198;-86
2022/01/26 07:51:59;;;;;;;0.30;0.20;;;-0.40;99.90;;;;;;5053124;28;20211;-84
2022/01/26 07:54:26;;;;;;;0.30;0.10;;;-0.30;99.90;;;;;;5052468;28;20655;-86
2022/01/26 07:56:53;;;;;;;0.30;0.10;;;-0.30;99.90;;;;;;5053786;28;20256;-83
2022/01/26 07:59:20;;;;;;;0.30;0.10;;;-0.30;99.90;;;;;;5049086;28;20287;-85
2022/01/26 08:01:47;;;;;;;0.30;0.10;;;-0.40;99.90;;;;;;5073404;28;20225;-85
2022/01/26 08:04:14;;;;;;;0.30;0.20;;;-0.30;99.90;;;;;;5041615;28;20198;-83
2022/01/26 08:06:43;;;;;;;0.30;0.10;;;-0.30;99.90;;;;;;5070121;28;20475;-83
2022/01/26 08:09:10;;;;;;;0.30;0.10;;;-0.30;99.90;;;;;;5069977;28;20195;-84
2022/01/26 08:11:37;;;;;;;0.30;0.10;;;-0.20;99.90;;;;;;5077084;28;20198;-83
2022/01/26 08:14:04;;;;;;;0.30;0.10;;;-0.20;99.90;;;;;;5083125;28;20247;-84
2022/01/26 08:16:31;;;;;;;0.40;0.40;;;-0.20;99.90;;;;;;5076409;28;20209;-83
2022/01/26 08:18:58;;;;;;;0.30;0.10;;;-0.10;99.90;;;;;;5073995;28;20199;-83
2022/01/26 08:21:25;;;;;;;0.30;0.10;;;-0.20;99.90;;;;;;5064710;28;20288;-86
2022/01/26 08:24:01;;;;;;;0.30;0.20;;;0.00;99.90;;;;;;5055608;28;20203;-88
2022/01/26 08:26:38;;;;;;;0.60;0.28;;;0.00;99.90;;;;;;5053526;28;20204;-88
2022/01/26 08:29:11;;;;;;;0.30;0.10;;;0.10;99.90;;;;;;5052686;28;20293;-88
2022/01/26 08:31:38;;;;;;;0.30;0.10;;;0.10;99.90;;;;;;5041620;28;20211;-87
2022/01/26 08:34:05;;;;;;;0.30;0.10;;;0.10;99.90;;;;;;5033211;28;20205;-86
2022/01/26 08:36:32;;;;;;;0.65;0.65;;;0.10;99.90;;;;;;5066253;28;20190;-86
2022/01/26 08:39:00;;;;;;;0.30;0.10;;;0.10;99.90;;;;;;5071691;28;20658;-86
2022/01/26 08:41:27;;;;;;;0.40;0.20;;;0.10;99.90;;;;;;5068557;28;20214;-86
2022/01/26 08:43:54;;;;;;;0.30;0.22;;;0.20;99.90;;;;;;5066708;28;20200;-86
2022/01/26 08:46:21;;;;;;;0.30;0.10;;;0.20;99.90;;;;;;5067889;28;20200;-86
2022/01/26 08:48:48;;;;;;;0.30;0.10;;;0.10;99.90;;;;;;5072030;28;20253;-86
2022/01/26 08:51:17;;;;;;;0.30;0.20;;;0.20;99.90;;;;;;5052811;28;20602;-86
2022/01/26 08:53:44;;;;;;;0.30;0.20;;;0.20;99.90;;;;;;5052438;28;20210;-87
2022/01/26 08:56:12;;;;;;;0.30;0.10;;;0.20;99.90;;;;;;5052706;28;20227;-85
2022/01/26 08:58:39;;;;;;;0.30;0.10;;;0.20;99.90;;;;;;5051752;28;20200;-88
2022/01/26 09:01:06;;;;;;;0.30;0.10;;;0.30;99.90;;;;;;5052470;28;20621;-89
2022/01/26 09:03:39;;;;;;;0.30;0.20;;;0.30;99.90;;;;;;5052090;28;20203;-86
2022/01/26 09:06:06;;;;;;;0.30;0.10;;;0.40;99.90;;;;;;5054861;28;20685;-87
2022/01/26 09:08:33;;;;;;;0.30;0.10;;;0.40;99.90;;;;;;5053214;28;20200;-86
2022/01/26 09:11:02;;;;;;;0.30;0.10;;;0.40;99.90;;;;;;5032051;28;20204;-85
2022/01/26 09:13:32;;;;;;;0.30;0.10;;;0.40;99.90;;;;;;5031859;28;20679;-86
2022/01/26 09:16:01;;;;;;;0.40;0.30;;;0.50;99.90;;;;;;5039751;28;20282;-85
2022/01/26 09:18:37;;;;;;;0.30;0.10;;;0.50;99.90;;;;;;5051169;28;20267;-86
2022/01/26 09:21:05;;;;;;;0.30;0.10;;;0.40;99.90;;;;;;5040189;28;20220;-86
2022/01/26 09:23:32;;;;;;;0.30;0.10;;;0.40;99.90;;;;;;5051178;28;20292;-86
2022/01/26 09:25:59;;;;;;;0.40;0.32;;;0.40;99.90;;;;;;5059195;28;20249;-86
2022/01/26 09:28:26;;;;;;;0.30;0.10;;;0.40;99.90;;;;;;5071465;28;20201;-87
2022/01/26 09:30:54;;;;;;;0.30;0.10;;;0.40;99.90;;;;;;5072327;28;20256;-88
2022/01/26 09:33:21;;;;;;;0.30;0.10;;;0.40;99.90;;;;;;5049425;28;20197;-85
2022/01/26 09:35:48;;;;;;;0.30;0.10;;;0.40;99.90;;;;;;5031821;28;20276;-86
2022/01/26 09:38:17;;;;;;;0.30;0.10;;;0.40;99.90;;;;;;5037413;28;20197;-86
2022/01/26 09:40:44;;;;;;;0.50;0.45;;;0.50;99.90;;;;;;5071047;28;20202;-87
2022/01/26 09:43:12;;;;;;;0.60;0.47;;;0.50;99.90;;;;;;5076228;28;20204;-88
2022/01/26 09:45:39;;;;;;;0.30;0.10;;;0.60;99.90;;;;;;5080251;28;20192;-89
2022/01/26 09:48:08;;;;;;;0.30;0.10;;;0.60;99.90;;;;;;5085837;28;20192;-87
2022/01/26 09:50:35;;;;;;;0.30;0.20;;;0.70;99.90;;;;;;5094643;28;20181;-86
2022/01/26 09:53:03;;;;;;;0.30;0.20;;;0.70;99.90;;;;;;5083361;28;20228;-87
2022/01/26 09:55:32;;;;;;;0.60;0.60;;;0.70;99.90;;;;;;5073351;28;20201;-88
2022/01/26 09:57:59;;;;;;;0.30;0.10;;;0.80;99.90;;;;;;5068282;28;20196;-87
2022/01/26 10:00:27;;;;;;;0.30;0.28;;;0.80;99.90;;;;;;5067263;28;20252;-88
2022/01/26 10:02:57;;;;;;;0.30;0.15;;;0.80;99.90;;;;;;5053026;28;20277;-87
2022/01/26 10:05:26;;;;;;;0.30;0.20;;;0.80;99.90;;;;;;5052747;28;20700;-87
2022/01/26 10:08:07;;;;;;;0.30;0.10;;;0.70;99.90;;;;;;5053477;28;20291;-88
2022/01/26 10:16:18;;;;;;;0.30;0.20;;;0.80;99.90;;;;;;5089027;28;20218;-87
2022/01/26 10:18:45;;;;;;;0.30;0.10;;;0.80;99.90;;;;;;5091906;28;20188;-86
2022/01/26 10:21:13;;;;;;;7.25;1.17;;;0.80;99.90;;;;;;5089585;28;20392;-86
2022/01/26 10:23:41;;;;;;;0.60;0.20;;;0.80;99.90;;;;;;5085621;28;20189;-86
2022/01/26 10:26:12;;;;;;;0.30;0.15;;;0.90;99.90;;;;;;5087528;28;20193;-87
2022/01/26 10:28:46;;;;;;;0.57;0.57;;;0.90;99.90;;;;;;5070837;28;20193;-85
2022/01/26 10:31:15;;;;;;;0.30;0.10;;;0.90;99.90;;;;;;5068773;28;20233;-87
2022/01/26 10:33:54;;;;;;;0.30;0.10;;;0.80;99.90;;;;;;5066516;28;20198;-87
2022/01/26 10:36:22;;;;;;;3.90;1.10;;;0.90;99.90;;;;;;5059485;28;20236;-86
2022/01/26 10:39:01;;;;;;;0.40;0.32;;;0.80;99.90;;;;;;5058483;28;20239;-87
2022/01/26 10:41:28;;;;;;;0.30;0.10;;;0.80;99.90;;;;;;5057979;28;20224;-87
2022/01/26 10:43:57;;;;;;;0.30;0.20;;;0.90;99.90;;;;;;5052500;28;20272;-87
2022/01/26 10:46:30;;;;;;;0.30;0.10;;;0.90;99.90;;;;;;5050567;28;20215;-86
2022/01/26 10:49:08;;;;;;;0.40;0.30;;;0.90;99.90;;;;;;5050083;28;20236;-86
2022/01/26 10:51:53;;;;;;;0.30;0.10;;;0.90;99.90;;;;;;5050069;28;20201;-88
2022/01/26 10:54:23;;;;;;;0.30;0.10;;;0.90;99.90;;;;;;5050020;28;20262;-87
2022/01/26 10:56:51;;;;;;;0.30;0.10;;;0.90;99.90;;;;;;5050315;28;20592;-87
2022/01/26 10:59:18;;;;;;;0.40;0.30;;;1.00;99.90;;;;;;5049534;28;20573;-87
2022/01/26 11:01:45;;;;;;;0.30;0.20;;;1.00;99.90;;;;;;5050087;28;20229;-89
2022/01/26 11:04:12;;;;;;;0.55;0.50;;;1.00;99.90;;;;;;5050741;28;20282;-87
2022/01/26 11:06:44;;;;;;;0.30;0.10;;;1.10;99.90;;;;;;5050726;28;20213;-87
2022/01/26 11:09:13;;;;;;;0.30;0.10;;;1.20;99.90;;;;;;5050766;28;20209;-89
2022/01/26 11:11:41;;;;;;;1.80;1.60;;;1.20;99.90;;;;;;5050396;28;20208;-87
2022/01/26 11:14:22;;;;;;;0.30;0.10;;;1.20;99.90;;;;;;5049956;28;21235;-87
2022/01/26 11:16:54;;;;;;;0.30;0.10;;;1.20;99.90;;;;;;5037573;28;20206;-87
2022/01/26 11:19:23;;;;;;;0.30;0.20;;;1.30;99.90;;;;;;5030800;28;20919;-87
2022/01/26 11:21:51;;;;;;;0.40;0.10;;;1.30;99.90;;;;;;5032480;28;20382;-87
2022/01/26 11:24:20;;;;;;;0.75;0.30;;;1.20;99.90;;;;;;5040946;28;20277;-86
2022/01/26 11:26:49;;;;;;;0.30;0.10;;;1.20;99.90;;;;;;5073037;28;20222;-87
2022/01/26 11:29:18;;;;;;;0.30;0.10;;;1.20;99.90;;;;;;5082606;28;20223;-87
2022/01/26 11:31:46;;;;;;;0.30;0.10;;;1.20;99.90;;;;;;5078674;28;20209;-89
2022/01/26 11:34:16;;;;;;;0.40;0.35;;;1.20;99.90;;;;;;5057280;28;20208;-88
2022/01/26 11:36:43;;;;;;;0.30;0.20;;;1.30;99.90;;;;;;5054270;28;20565;-87
2022/01/26 11:42:32;;;;;;;0.30;0.20;;;1.30;99.90;;;;;;5068590;28;20360;-86
2022/01/26 11:45:10;;;;;;;7.97;1.37;;;1.40;99.90;;;;;;5070892;28;20305;-86
2022/01/26 11:47:40;;;;;;;0.30;0.20;;;1.40;99.90;;;;;;5059816;28;20465;-89
2022/01/26 11:50:14;;;;;;;0.30;0.28;;;1.40;99.90;;;;;;5052665;28;20804;-85
2022/01/26 11:52:41;;;;;;;0.40;0.40;;;1.30;99.90;;;;;;5047675;28;20230;-87
2022/01/26 11:55:30;;;;;;;1.77;1.67;;;1.40;99.90;;;;;;5061058;28;20484;-85
2022/01/26 11:58:11;;;;;;;0.30;0.10;;;1.30;99.90;;;;;;5073707;28;20278;-85
2022/01/26 12:00:47;;;;;;;0.30;0.10;;;1.40;99.90;;;;;;5072829;28;20612;-85
2022/01/26 12:03:28;;;;;;;0.30;0.15;;;1.40;99.90;;;;;;5073184;28;20244;-88
2022/01/26 12:05:57;;;;;;;3.35;3.05;;;1.40;99.90;;;;;;5068335;28;20207;-85
2022/01/26 12:08:37;;;;;;;0.30;0.10;;;1.50;99.90;;;;;;5064759;28;20263;-87
2022/01/26 12:11:07;;;;;;;1.10;1.10;;;1.50;99.90;;;;;;5053526;28;20247;-86
2022/01/26 12:13:37;;;;;;;0.30;0.17;;;1.40;99.90;;;;;;5051992;28;20648;-88
2022/01/26 12:16:09;;;;;;;0.30;0.10;;;1.40;99.90;;;;;;5053293;28;20801;-85
2022/01/26 12:18:41;;;;;;;0.30;0.10;;;1.50;99.90;;;;;;5053464;28;21007;-85
2022/01/26 12:35:40;;;;;;;0.30;0.20;;;1.40;99.90;;;;;;5033360;28;20201;-87
2022/01/26 12:38:14;;;;;;;0.30;0.10;;;1.40;99.90;;;;;;5033840;28;20229;-85
2022/01/26 12:43:42;;;;;;;0.30;0.10;;;1.40;99.90;;;;;;5072578;28;20227;-85
2022/01/26 12:46:13;;;;;;;0.40;0.30;;;1.50;99.90;;;;;;5045751;28;20206;-88
2022/01/26 12:48:42;;;;;;;1.50;0.82;;;1.60;99.90;;;;;;5052587;28;20456;-86
2022/01/26 12:51:10;;;;;;;0.30;0.10;;;1.60;99.90;;;;;;5052705;28;20668;-85
2022/01/26 12:53:40;;;;;;;1.10;0.45;;;1.50;99.90;;;;;;5052267;28;20209;-85
2022/01/26 12:56:09;;;;;;;0.40;0.30;;;1.50;99.90;;;;;;5051923;28;20209;-87
2022/01/26 12:58:39;;;;;;;0.30;0.20;;;1.50;99.90;;;;;;5050901;28;20244;-85
2022/01/26 13:01:08;;;;;;;0.30;0.10;;;1.50;99.90;;;;;;5054688;28;20205;-87
2022/01/26 13:03:36;;;;;;;0.30;0.10;;;1.60;99.90;;;;;;5050510;28;20229;-86
2022/01/26 13:06:12;;;;;;;0.30;0.20;;;1.60;99.90;;;;;;5075854;28;20208;-85
2022/01/26 13:08:44;;;;;;;0.30;0.10;;;1.60;99.90;;;;;;5069960;28;20215;-86
2022/01/26 13:11:12;;;;;;;0.30;0.10;;;1.60;99.90;;;;;;5072202;28;20207;-88
2022/01/26 13:13:41;;;;;;;0.30;0.10;;;1.70;99.90;;;;;;5057713;28;20288;-86
2022/01/26 13:16:21;;;;;;;0.30;0.20;;;1.70;99.90;;;;;;5052324;28;20235;-85
2022/01/26 13:19:09;;;;;;;0.30;0.20;;;1.70;99.90;;;;;;5039207;28;20207;-85
2022/01/26 13:27:13;;;;;;;0.30;0.20;;;1.70;99.90;;;;;;5050401;28;20203;-85
2022/01/26 13:29:55;;;;;;;0.30;0.20;;;1.70;99.90;;;;;;5049785;28;20442;-85
2022/01/26 13:32:49;;;;;;;0.77;0.77;;;1.70;99.90;;;;;;5031744;28;20205;-89
2022/01/26 13:35:41;;;;;;;0.30;0.10;;;1.70;99.90;;;;;;5031775;28;20548;-90
2022/01/26 13:38:24;;;;;;;0.40;0.30;;;1.90;99.90;;;;;;5045344;28;20287;-86
2022/01/26 13:41:00;;;;;;;0.57;0.57;;;2.00;99.90;;;;;;5051270;28;20791;-87
2022/01/26 13:51:48;;;;;;;0.30;0.20;;;1.90;99.90;;;;;;5025465;28;20457;-86
2022/01/26 13:57:14;;;;;;;0.30;0.10;;;1.80;99.90;;;;;;5053329;28;20206;-87
2022/01/26 13:59:46;;;;;;;0.30;0.20;;;1.80;99.90;;;;;;5065813;28;20228;-89
2022/01/26 14:02:15;;;;;;;0.30;0.10;;;1.80;99.90;;;;;;5051007;28;20479;-87
2022/01/26 14:04:42;;;;;;;0.43;0.43;;;1.70;99.90;;;;;;5040381;28;20197;-89
2022/01/26 14:07:09;;;;;;;0.63;0.63;;;1.80;99.90;;;;;;5031246;28;20919;-87
2022/01/26 14:09:37;;;;;;;0.30;0.20;;;1.70;99.90;;;;;;5061450;28;20459;-89
2022/01/26 14:12:05;;;;;;;0.30;0.10;;;1.70;99.90;;;;;;5070436;28;20640;-87
2022/01/26 14:14:36;;;;;;;0.30;0.10;;;1.70;99.90;;;;;;5053763;28;20462;-88
2022/01/26 14:17:13;;;;;;;0.30;0.10;;;1.70;99.90;;;;;;5050589;28;20873;-87
2022/01/26 14:20:06;;;;;;;0.30;0.10;;;1.80;99.90;;;;;;5061439;28;20462;-87
2022/01/26 14:22:38;;;;;;;0.30;0.10;;;1.70;99.90;;;;;;5060072;28;20904;-87
2022/01/26 14:25:17;;;;;;;0.30;0.10;;;1.80;99.90;;;;;;5068414;28;20479;-89
2022/01/26 14:27:48;;;;;;;0.30;0.10;;;1.80;99.90;;;;;;5063976;28;20457;-86
2022/01/26 14:30:30;;;;;;;3.87;0.87;;;1.90;99.90;;;;;;5064916;28;20204;-87
2022/01/26 14:33:10;;;;;;;0.40;0.20;;;1.90;99.90;;;;;;5063669;28;20474;-87
2022/01/26 14:52:42;;;;;;;0.30;0.10;;;1.20;99.90;;;;;;5053971;28;20214;-86
2022/01/26 14:55:40;;;;;;;0.30;0.20;;;1.20;99.90;;;;;;5043933;28;20280;-88
2022/01/26 15:18:59;;;;;;;0.30;0.20;;;1.00;99.90;;;;;;4988237;28;20230;-88
2022/01/26 15:40:18;;;;;;;0.30;0.10;;;0.80;99.90;;;;;;5005026;28;20289;-87
2022/01/26 15:48:49;;;;;;;0.30;0.10;;;0.60;99.90;;;;;;5030161;28;20215;-88
2022/01/26 15:51:43;;;;;;;0.30;0.10;;;0.70;99.90;;;;;;5029807;28;20201;-88
2022/01/26 16:05:25;;;;;;;0.30;0.20;;;0.80;99.90;;;;;;5049394;28;20211;-87
2022/01/26 16:07:56;;;;;;;0.30;0.20;;;0.80;99.90;;;;;;5057279;28;20207;-87
2022/01/26 16:21:28;;;;;;;0.30;0.17;;;0.90;99.90;;;;;;5057081;28;20196;-86
2022/01/26 16:35:26;;;;;;;0.30;0.10;;;1.00;99.90;;;;;;5033899;28;20713;-88